createdAt,value
2023-03-02T00:00:16.189Z,46.50
2023-03-02T00:02:49.973Z,46.50
2023-03-02T00:05:18.812Z,46.50
2023-03-02T00:07:47.231Z,46.70
2023-03-02T00:10:15.718Z,46.60
2023-03-02T00:12:45.886Z,46.60
2023-03-02T00:15:16.658Z,46.60
2023-03-02T00:17:45.042Z,46.70
2023-03-02T00:20:14.437Z,46.70
2023-03-02T00:22:45.139Z,46.70
2023-03-02T00:25:15.498Z,46.70
2023-03-02T00:27:46.063Z,46.70
2023-03-02T00:30:16.284Z,46.60
2023-03-02T00:32:45.749Z,46.90
2023-03-02T00:35:14.161Z,46.60
2023-03-02T00:37:42.621Z,46.70
2023-03-02T00:40:13.041Z,46.60
2023-03-02T00:42:42.416Z,46.70
2023-03-02T00:45:12.899Z,46.70
2023-03-02T00:47:42.479Z,46.70
2023-03-02T00:50:12.193Z,46.80
2023-03-02T00:52:40.870Z,46.80
2023-03-02T00:55:10.278Z,46.90
2023-03-02T00:57:38.640Z,46.90
2023-03-02T01:00:10.105Z,47.50
2023-03-02T01:02:44.188Z,46.90
2023-03-02T01:05:16.530Z,46.80
2023-03-02T01:07:45.960Z,46.90
2023-03-02T01:10:15.980Z,46.90
2023-03-02T01:12:44.489Z,46.90
2023-03-02T01:15:13.335Z,46.80
2023-03-02T01:17:44.009Z,47.00
2023-03-02T01:20:14.460Z,46.80
2023-03-02T01:22:44.866Z,46.80
2023-03-02T01:25:14.224Z,46.80
2023-03-02T01:27:43.476Z,46.80
2023-03-02T01:30:13.814Z,46.70
2023-03-02T01:32:43.614Z,46.80
2023-03-02T01:35:12.262Z,46.80
2023-03-02T01:37:40.653Z,46.80
2023-03-02T01:40:11.695Z,46.90
2023-03-02T01:42:48.005Z,46.90
2023-03-02T01:45:53.775Z,47.00
2023-03-02T01:48:48.790Z,47.00
2023-03-02T01:51:25.634Z,46.90
2023-03-02T01:54:01.602Z,47.00
2023-03-02T01:56:36.161Z,46.90
2023-03-02T01:59:10.343Z,47.00
2023-03-02T02:01:42.902Z,47.00
2023-03-02T02:04:13.515Z,46.90
2023-03-02T02:06:46.144Z,46.90
2023-03-02T02:09:18.580Z,46.90
2023-03-02T02:11:47.953Z,47.10
2023-03-02T02:14:16.878Z,47.10
2023-03-02T02:16:45.507Z,47.10
2023-03-02T02:19:31.339Z,47.10
2023-03-02T02:22:00.232Z,47.20
2023-03-02T02:24:37.343Z,47.10
2023-03-02T02:27:07.278Z,47.20
2023-03-02T02:29:45.585Z,47.10
2023-03-02T02:32:18.646Z,47.20
2023-03-02T02:34:53.487Z,47.20
2023-03-02T02:37:26.984Z,47.30
2023-03-02T02:39:57.154Z,47.30
2023-03-02T02:42:31.349Z,47.30
2023-03-02T02:45:03.725Z,47.40
2023-03-02T02:47:33.104Z,47.30
2023-03-02T02:50:02.816Z,47.40
2023-03-02T02:52:31.368Z,47.40
2023-03-02T02:55:00.275Z,47.40
2023-03-02T02:57:31.965Z,47.50
2023-03-02T03:00:02.009Z,47.50
2023-03-02T03:02:38.871Z,47.50
2023-03-02T03:05:11.258Z,47.50
2023-03-02T03:07:39.689Z,47.50
2023-03-02T03:10:16.112Z,47.40
2023-03-02T03:12:48.294Z,47.50
2023-03-02T03:15:17.335Z,47.50
2023-03-02T03:17:49.976Z,47.50
2023-03-02T03:20:19.420Z,47.50
2023-03-02T03:22:47.822Z,48.10
2023-03-02T03:25:16.672Z,47.50
2023-03-02T03:27:50.399Z,47.50
2023-03-02T03:30:20.339Z,47.50
2023-03-02T03:32:48.755Z,47.50
2023-03-02T03:35:18.442Z,47.50
2023-03-02T03:37:48.460Z,47.50
2023-03-02T03:40:17.773Z,47.60
2023-03-02T03:42:49.027Z,47.50
2023-03-02T03:45:18.252Z,47.50
2023-03-02T03:47:46.872Z,47.60
2023-03-02T03:50:15.721Z,47.50
2023-03-02T03:52:45.170Z,47.50
2023-03-02T03:55:20.297Z,47.50
2023-03-02T03:57:52.173Z,47.50
2023-03-02T04:00:21.754Z,47.40
2023-03-02T04:02:56.673Z,47.50
2023-03-02T04:05:28.273Z,47.50
2023-03-02T04:07:59.193Z,47.50
2023-03-02T04:10:27.692Z,47.50
2023-03-02T04:12:58.063Z,47.60
2023-03-02T04:15:27.843Z,47.50
2023-03-02T04:17:57.674Z,47.50
2023-03-02T04:20:28.053Z,47.60
2023-03-02T04:22:58.466Z,47.70
2023-03-02T04:25:30.230Z,47.70
2023-03-02T04:28:09.391Z,48.30
2023-03-02T04:30:40.476Z,47.70
2023-03-02T04:33:09.248Z,47.80
2023-03-02T04:35:38.119Z,47.70
2023-03-02T04:38:06.601Z,47.80
2023-03-02T04:40:35.533Z,47.70
2023-03-02T04:43:03.994Z,47.70
2023-03-02T04:45:33.916Z,47.80
2023-03-02T04:48:02.368Z,47.80
2023-03-02T04:50:30.822Z,47.80
2023-03-02T04:52:59.308Z,47.70
2023-03-02T04:55:29.093Z,47.70
2023-03-02T04:57:57.533Z,47.80
2023-03-02T05:00:28.821Z,47.70
2023-03-02T05:02:59.826Z,47.70
2023-03-02T05:05:29.229Z,47.70
2023-03-02T05:07:58.479Z,47.70
2023-03-02T05:10:28.882Z,47.70
2023-03-02T05:13:02.238Z,47.70
2023-03-02T05:15:34.835Z,47.70
2023-03-02T05:18:06.899Z,47.70
2023-03-02T05:20:35.735Z,47.80
2023-03-02T05:23:07.083Z,47.80
2023-03-02T05:25:38.560Z,47.80
2023-03-02T05:28:07.370Z,47.90
2023-03-02T05:30:37.665Z,47.90
2023-03-02T05:33:07.797Z,47.90
2023-03-02T05:35:36.647Z,47.90
2023-03-02T05:38:05.261Z,47.90
2023-03-02T05:40:34.206Z,47.90
2023-03-02T05:43:02.857Z,47.90
2023-03-02T05:45:37.430Z,47.90
2023-03-02T05:48:08.819Z,47.90
2023-03-02T05:50:37.258Z,47.80
2023-03-02T05:53:06.414Z,47.80
2023-03-02T05:55:37.236Z,47.90
2023-03-02T05:58:06.158Z,47.80
2023-03-02T06:00:34.589Z,47.80
2023-03-02T06:03:03.409Z,47.90
2023-03-02T06:05:33.448Z,47.80
2023-03-02T06:08:01.814Z,47.80
2023-03-02T06:10:30.532Z,47.80
2023-03-02T06:12:59.209Z,47.90
2023-03-02T06:15:29.634Z,48.00
2023-03-02T06:17:58.252Z,48.00
2023-03-02T06:20:27.768Z,48.00
2023-03-02T06:22:58.365Z,47.80
2023-03-02T06:25:28.044Z,47.80
2023-03-02T06:27:56.383Z,47.90
2023-03-02T06:30:27.983Z,47.80
2023-03-02T06:32:56.571Z,47.80
2023-03-02T06:35:24.986Z,47.90
2023-03-02T06:37:53.471Z,47.90
2023-03-02T06:40:23.364Z,47.90
2023-03-02T06:42:51.778Z,47.90
2023-03-02T06:45:20.439Z,47.90
2023-03-02T06:47:48.778Z,47.90
2023-03-02T06:50:17.406Z,48.00
2023-03-02T06:52:46.008Z,48.00
2023-03-02T06:55:14.571Z,48.00
2023-03-02T06:57:44.310Z,48.00
2023-03-02T07:00:17.297Z,48.00
2023-03-02T07:02:46.153Z,48.00
2023-03-02T07:05:14.871Z,48.10
2023-03-02T07:07:43.482Z,48.10
2023-03-02T07:10:13.525Z,48.10
2023-03-02T07:12:43.700Z,48.10
2023-03-02T07:15:14.283Z,48.80
2023-03-02T07:17:44.389Z,48.20
2023-03-02T07:20:15.453Z,48.20
2023-03-02T07:22:44.289Z,48.30
2023-03-02T07:25:13.176Z,48.50
2023-03-02T07:27:43.795Z,48.50
2023-03-02T07:30:14.844Z,48.40
2023-03-02T07:32:43.492Z,48.50
2023-03-02T07:35:11.958Z,48.40
2023-03-02T07:37:40.844Z,48.50
2023-03-02T07:40:12.024Z,48.50
2023-03-02T07:42:40.716Z,48.50
2023-03-02T07:45:13.130Z,48.50
2023-03-02T07:47:41.608Z,48.60
2023-03-02T07:50:12.037Z,48.60
2023-03-02T07:52:40.654Z,48.70
2023-03-02T07:55:10.512Z,48.60
2023-03-02T07:57:38.928Z,48.60
2023-03-02T08:00:11.354Z,48.50
2023-03-02T08:02:43.528Z,48.40
2023-03-02T08:05:13.610Z,48.30
2023-03-02T08:07:42.314Z,48.30
2023-03-02T08:10:12.732Z,48.40
2023-03-02T08:12:42.853Z,48.50
2023-03-02T08:15:13.786Z,48.50
2023-03-02T08:17:42.433Z,48.50
2023-03-02T08:20:11.961Z,48.30
2023-03-02T08:22:40.787Z,48.30
2023-03-02T08:25:09.685Z,48.30
2023-03-02T08:27:40.194Z,48.30
2023-03-02T08:30:10.896Z,48.40
2023-03-02T08:32:41.696Z,48.50
2023-03-02T08:35:10.786Z,48.40
2023-03-02T08:37:39.165Z,48.30
2023-03-02T08:40:09.287Z,48.40
2023-03-02T08:42:37.658Z,48.30
2023-03-02T08:45:07.677Z,48.40
2023-03-02T08:47:36.059Z,48.40
2023-03-02T08:50:06.678Z,48.40
2023-03-02T08:52:35.188Z,48.40
2023-03-02T08:55:04.254Z,48.30
2023-03-02T08:57:34.662Z,48.30
2023-03-02T09:00:03.667Z,48.20
2023-03-02T09:02:32.107Z,48.30
2023-03-02T09:05:00.500Z,48.30
2023-03-02T09:07:30.591Z,48.20
2023-03-02T09:09:59.004Z,48.20
2023-03-02T09:12:27.423Z,48.20
2023-03-02T09:14:55.866Z,48.20
2023-03-02T09:17:24.258Z,48.00
2023-03-02T09:19:54.627Z,48.00
2023-03-02T09:22:22.962Z,47.90
2023-03-02T09:24:53.199Z,47.90
2023-03-02T09:27:21.685Z,47.80
2023-03-02T09:29:49.978Z,47.60
2023-03-02T09:32:18.553Z,47.70
2023-03-02T09:34:47.158Z,47.70
2023-03-02T09:37:15.615Z,47.70
2023-03-02T09:39:44.004Z,47.70
2023-03-02T09:42:43.200Z,47.60
2023-03-02T09:45:36.781Z,47.60
2023-03-02T09:48:19.041Z,47.50
2023-03-02T09:50:57.470Z,47.50
2023-03-02T09:53:45.352Z,47.70
2023-03-02T09:56:18.018Z,47.40
2023-03-02T09:58:55.148Z,47.70
2023-03-02T10:01:38.622Z,47.50
2023-03-02T10:04:23.668Z,47.50
2023-03-02T10:06:59.676Z,47.40
2023-03-02T10:09:28.133Z,47.30
2023-03-02T10:12:19.226Z,47.40
2023-03-02T10:14:57.800Z,47.20
2023-03-02T10:17:51.844Z,47.10
2023-03-02T10:20:34.154Z,47.00
2023-03-02T10:23:22.877Z,47.00
2023-03-02T10:26:01.025Z,47.00
2023-03-02T10:28:36.838Z,47.00
2023-03-02T10:31:11.918Z,46.80
2023-03-02T10:33:42.855Z,46.60
2023-03-02T10:36:23.997Z,46.60
2023-03-02T10:38:53.100Z,46.60
2023-03-02T10:41:27.974Z,46.70
2023-03-02T10:44:01.860Z,46.80
2023-03-02T10:46:42.187Z,46.70
2023-03-02T10:49:28.537Z,46.60
2023-03-02T10:52:00.405Z,46.60
2023-03-02T10:54:30.704Z,46.80
2023-03-02T10:57:02.131Z,46.70
2023-03-02T10:59:48.838Z,46.30
2023-03-02T11:02:23.388Z,46.10
2023-03-02T11:04:57.948Z,46.40
2023-03-02T11:07:28.799Z,46.10
2023-03-02T11:10:03.185Z,46.00
2023-03-02T11:12:33.730Z,45.80
2023-03-02T11:15:23.110Z,45.80
2023-03-02T11:18:01.293Z,45.50
2023-03-02T11:20:35.807Z,45.70
2023-03-02T11:23:18.861Z,45.70
2023-03-02T11:25:54.469Z,45.60
2023-03-02T11:28:48.591Z,45.70
2023-03-02T11:31:29.990Z,45.60
2023-03-02T11:34:17.683Z,45.20
2023-03-02T11:36:59.423Z,45.20
2023-03-02T11:39:41.065Z,45.40
2023-03-02T11:42:20.845Z,45.20
2023-03-02T11:44:50.343Z,45.30
2023-03-02T11:47:19.981Z,45.40
2023-03-02T11:49:55.508Z,45.30
2023-03-02T11:52:27.854Z,45.40
2023-03-02T11:55:02.190Z,45.50
2023-03-02T11:57:35.212Z,45.10
2023-03-02T12:00:05.814Z,45.20
2023-03-02T12:02:40.760Z,45.00
2023-03-02T12:05:27.274Z,45.10
2023-03-02T12:08:00.983Z,44.80
2023-03-02T12:10:37.357Z,44.80
2023-03-02T12:13:17.062Z,44.90
2023-03-02T12:15:47.331Z,44.40
2023-03-02T12:18:45.342Z,44.60
2023-03-02T12:21:18.531Z,44.30
2023-03-02T12:24:00.638Z,44.60
2023-03-02T12:26:36.645Z,44.80
2023-03-02T12:29:24.830Z,44.00
2023-03-02T12:31:56.513Z,44.20
2023-03-02T12:34:38.343Z,44.10
2023-03-02T12:37:18.633Z,44.10
2023-03-02T12:40:26.416Z,43.90
2023-03-02T12:43:31.317Z,43.70
2023-03-02T12:46:28.704Z,43.80
2023-03-02T12:49:27.152Z,43.80
2023-03-02T12:51:58.095Z,43.80
2023-03-02T12:54:30.487Z,44.10
2023-03-02T12:57:13.920Z,44.10
2023-03-02T12:59:43.082Z,43.60
2023-03-02T13:02:19.055Z,43.00
2023-03-02T13:04:56.171Z,42.90
2023-03-02T13:07:28.981Z,43.00
2023-03-02T13:10:00.525Z,43.20
2023-03-02T13:12:30.076Z,43.00
2023-03-02T13:15:00.661Z,43.00
2023-03-02T13:17:31.295Z,42.60
2023-03-02T13:20:01.740Z,42.70
2023-03-02T13:22:30.706Z,42.40
2023-03-02T13:25:02.366Z,42.40
2023-03-02T13:27:33.851Z,42.50
2023-03-02T13:30:12.615Z,42.50
2023-03-02T13:32:43.952Z,42.40
2023-03-02T13:35:26.788Z,42.50
2023-03-02T13:38:02.899Z,42.10
2023-03-02T13:40:55.470Z,42.60
2023-03-02T13:43:39.000Z,42.50
2023-03-02T13:46:28.657Z,42.30
2023-03-02T13:49:14.483Z,42.40
2023-03-02T13:51:46.798Z,42.50
2023-03-02T13:54:23.461Z,42.50
2023-03-02T13:56:54.565Z,42.30
2023-03-02T13:59:23.706Z,42.60
2023-03-02T14:01:52.362Z,42.60
2023-03-02T14:04:23.959Z,42.60
2023-03-02T14:06:53.996Z,42.70
2023-03-02T14:09:23.203Z,42.60
2023-03-02T14:11:55.645Z,42.60
2023-03-02T14:14:27.616Z,42.60
2023-03-02T14:16:56.140Z,42.70
2023-03-02T14:19:24.463Z,42.90
2023-03-02T14:21:52.833Z,42.90
2023-03-02T14:24:21.267Z,42.80
2023-03-02T14:26:52.144Z,42.90
2023-03-02T14:29:26.906Z,42.70
2023-03-02T14:31:56.573Z,42.60
2023-03-02T14:34:25.038Z,42.50
2023-03-02T14:36:56.427Z,42.60
2023-03-02T14:39:34.464Z,42.30
2023-03-02T14:42:05.378Z,42.20
2023-03-02T14:44:34.164Z,42.20
2023-03-02T14:47:02.508Z,42.20
2023-03-02T14:49:30.907Z,42.30
2023-03-02T14:52:05.636Z,42.30
2023-03-02T14:54:40.803Z,42.30
2023-03-02T14:57:20.139Z,42.20
2023-03-02T14:59:48.503Z,42.20
2023-03-02T15:02:25.222Z,42.30
2023-03-02T15:04:56.937Z,42.20
2023-03-02T15:07:28.361Z,42.20
2023-03-02T15:09:57.600Z,42.10
2023-03-02T15:12:27.819Z,42.90
2023-03-02T15:14:56.159Z,42.20
2023-03-02T15:17:24.696Z,42.20
2023-03-02T15:19:53.279Z,42.40
2023-03-02T15:22:21.701Z,42.40
2023-03-02T15:24:50.241Z,42.50
2023-03-02T15:27:18.713Z,42.60
2023-03-02T15:29:48.874Z,42.70
2023-03-02T15:32:18.158Z,42.70
2023-03-02T15:34:48.498Z,42.70
2023-03-02T15:37:17.229Z,42.70
2023-03-02T15:39:45.600Z,42.70
2023-03-02T15:42:14.220Z,42.70
2023-03-02T15:44:43.059Z,42.70
2023-03-02T15:47:12.767Z,42.70
2023-03-02T15:49:41.213Z,42.60
2023-03-02T15:52:10.993Z,42.70
2023-03-02T15:54:39.868Z,42.70
2023-03-02T15:57:10.114Z,42.80
2023-03-02T15:59:38.715Z,43.10
2023-03-02T16:02:07.092Z,43.20
2023-03-02T16:04:37.029Z,43.40
2023-03-02T16:07:05.881Z,43.70
2023-03-02T16:09:34.251Z,43.80
2023-03-02T16:12:02.715Z,44.00
2023-03-02T16:14:31.111Z,44.10
2023-03-02T16:16:59.437Z,44.20
2023-03-02T16:19:27.826Z,44.30
2023-03-02T16:21:57.622Z,44.30
2023-03-02T16:24:26.552Z,44.50
2023-03-02T16:26:55.225Z,44.60
2023-03-02T16:29:24.618Z,44.60
2023-03-02T16:31:53.298Z,44.70
2023-03-02T16:34:22.049Z,44.80
2023-03-02T16:36:50.907Z,44.80
2023-03-02T16:39:20.656Z,44.90
2023-03-02T16:41:49.410Z,45.10
2023-03-02T16:44:18.242Z,45.10
2023-03-02T16:46:47.216Z,45.00
2023-03-02T16:49:17.053Z,45.10
2023-03-02T16:51:45.540Z,45.30
2023-03-02T16:54:17.908Z,45.30
2023-03-02T16:56:47.821Z,45.40
2023-03-02T16:59:16.529Z,45.50
2023-03-02T17:01:45.100Z,45.50
2023-03-02T17:04:13.733Z,45.60
2023-03-02T17:06:59.976Z,45.70
2023-03-02T17:09:29.230Z,45.70
2023-03-02T17:11:59.237Z,45.70
2023-03-02T17:14:28.166Z,45.80
2023-03-02T17:16:57.830Z,45.90
2023-03-02T17:19:29.423Z,45.90
2023-03-02T17:21:58.945Z,45.90
2023-03-02T17:24:28.450Z,46.00
2023-03-02T17:26:58.605Z,46.10
2023-03-02T17:29:27.089Z,46.10
2023-03-02T17:31:55.859Z,46.20
2023-03-02T17:34:24.337Z,46.20
2023-03-02T17:36:52.697Z,46.40
2023-03-02T17:39:21.223Z,46.30
2023-03-02T17:41:49.606Z,46.40
2023-03-02T17:44:19.512Z,46.50
2023-03-02T17:46:48.035Z,46.60
2023-03-02T17:49:16.517Z,47.40
2023-03-02T17:51:44.944Z,47.50
2023-03-02T17:54:13.310Z,47.60
2023-03-02T17:56:42.117Z,47.60
2023-03-02T17:59:11.596Z,47.80
2023-03-02T18:01:43.416Z,47.70
2023-03-02T18:04:12.017Z,47.80
2023-03-02T18:06:40.720Z,47.90
2023-03-02T18:09:09.464Z,47.90
2023-03-02T18:11:37.995Z,48.00
2023-03-02T18:14:06.436Z,47.90
2023-03-02T18:16:35.527Z,48.00
2023-03-02T18:19:05.631Z,48.00
2023-03-02T18:21:34.548Z,48.10
2023-03-02T18:24:03.401Z,48.10
2023-03-02T18:26:31.847Z,48.20
2023-03-02T18:29:00.299Z,48.40
2023-03-02T18:31:31.288Z,48.30
2023-03-02T18:33:59.971Z,48.40
2023-03-02T18:36:30.769Z,48.40
2023-03-02T18:38:59.192Z,49.10
2023-03-02T18:41:27.574Z,48.50
2023-03-02T18:43:56.017Z,48.50
2023-03-02T18:46:30.613Z,48.50
2023-03-02T18:49:01.554Z,48.70
2023-03-02T18:51:31.708Z,48.70
2023-03-02T18:54:00.356Z,48.80
2023-03-02T18:56:28.937Z,48.90
2023-03-02T18:58:57.283Z,49.00
2023-03-02T19:01:25.664Z,49.00
2023-03-02T19:03:56.847Z,49.00
2023-03-02T19:06:25.496Z,49.10
2023-03-02T19:08:55.811Z,49.10
2023-03-02T19:11:24.361Z,49.30
2023-03-02T19:13:52.946Z,49.20
2023-03-02T19:16:21.640Z,49.30
2023-03-02T19:18:50.180Z,49.30
2023-03-02T19:21:18.750Z,49.20
2023-03-02T19:23:47.587Z,49.40
2023-03-02T19:26:17.423Z,49.30
2023-03-02T19:28:45.941Z,49.50
2023-03-02T19:31:14.868Z,49.50
2023-03-02T19:33:46.569Z,49.60
2023-03-02T19:36:15.489Z,49.70
2023-03-02T19:38:44.539Z,49.70
2023-03-02T19:41:18.557Z,49.70
2023-03-02T19:43:47.675Z,49.80
2023-03-02T19:46:17.433Z,49.80
2023-03-02T19:48:46.138Z,49.90
2023-03-02T19:51:16.140Z,49.90
2023-03-02T19:53:45.982Z,49.90
2023-03-02T19:56:17.400Z,49.90
2023-03-02T19:58:50.279Z,50.00
2023-03-02T20:01:21.521Z,50.10
2023-03-02T20:03:51.761Z,50.20
2023-03-02T20:06:21.671Z,50.30
2023-03-02T20:08:53.807Z,50.30
2023-03-02T20:11:25.117Z,50.40
2023-03-02T20:13:53.977Z,50.40
2023-03-02T20:16:22.952Z,50.40
2023-03-02T20:18:52.135Z,50.50
2023-03-02T20:21:21.220Z,50.50
2023-03-02T20:23:50.030Z,50.50
2023-03-02T20:26:18.606Z,50.60
2023-03-02T20:28:49.680Z,50.60
2023-03-02T20:31:18.447Z,50.80
2023-03-02T20:33:50.359Z,50.80
2023-03-02T20:36:25.121Z,50.80
2023-03-02T20:39:00.570Z,50.80
2023-03-02T20:41:30.190Z,50.80
2023-03-02T20:44:00.233Z,50.80
2023-03-02T20:46:32.871Z,50.80
2023-03-02T20:49:01.713Z,50.90
2023-03-02T20:51:30.838Z,50.80
2023-03-02T20:53:59.890Z,51.00
2023-03-02T20:56:28.361Z,51.00
2023-03-02T20:58:57.248Z,51.00
2023-03-02T21:01:29.919Z,51.00
2023-03-02T21:03:58.794Z,51.10
2023-03-02T21:06:29.505Z,51.10
2023-03-02T21:09:00.114Z,51.10
2023-03-02T21:11:32.128Z,51.20
2023-03-02T21:14:01.957Z,51.30
2023-03-02T21:16:37.941Z,51.30
2023-03-02T21:19:08.689Z,51.50
2023-03-02T21:21:42.171Z,51.50
2023-03-02T21:24:11.834Z,51.50
2023-03-02T21:26:41.522Z,51.50
2023-03-02T21:29:11.627Z,51.60
2023-03-02T21:31:43.774Z,51.60
2023-03-02T21:34:13.018Z,51.70
2023-03-02T21:36:41.958Z,51.80
2023-03-02T21:39:11.805Z,51.80
2023-03-02T21:41:40.529Z,51.90
2023-03-02T21:44:09.055Z,51.90
2023-03-02T21:46:40.496Z,52.00
2023-03-02T21:49:09.129Z,52.10
2023-03-02T21:51:37.539Z,52.10
2023-03-02T21:54:06.324Z,52.00
2023-03-02T21:56:35.497Z,52.10
2023-03-02T21:59:04.948Z,52.10
2023-03-02T22:01:34.158Z,52.10
2023-03-02T22:04:04.109Z,52.20
2023-03-02T22:06:35.660Z,52.20
2023-03-02T22:09:05.191Z,52.20
2023-03-02T22:11:38.370Z,52.10
2023-03-02T22:14:14.041Z,52.20
2023-03-02T22:16:45.182Z,52.20
2023-03-02T22:19:27.520Z,52.30
2023-03-02T22:21:59.876Z,52.40
2023-03-02T22:24:30.614Z,52.30
2023-03-02T22:27:02.189Z,52.30
2023-03-02T22:29:34.267Z,52.30
2023-03-02T22:32:16.455Z,52.30
2023-03-02T22:34:48.130Z,52.50
2023-03-02T22:37:18.888Z,52.50
2023-03-02T22:39:48.821Z,52.50
2023-03-02T22:42:19.813Z,52.50
2023-03-02T22:44:52.426Z,52.60
2023-03-02T22:47:21.816Z,52.60
2023-03-02T22:50:00.131Z,52.80
2023-03-02T22:52:37.264Z,52.70
2023-03-02T22:55:30.385Z,52.70
2023-03-02T22:57:59.039Z,52.70
2023-03-02T23:00:36.504Z,52.70
2023-03-02T23:03:17.521Z,52.80
2023-03-02T23:05:51.520Z,52.90
2023-03-02T23:08:24.141Z,52.70
2023-03-02T23:10:57.520Z,52.80
2023-03-02T23:13:37.510Z,52.80
2023-03-02T23:16:16.623Z,52.90
2023-03-02T23:18:45.673Z,53.10
2023-03-02T23:21:20.763Z,52.80
2023-03-02T23:23:50.182Z,52.90
2023-03-02T23:26:19.761Z,52.90
2023-03-02T23:28:49.884Z,52.90
2023-03-02T23:31:19.390Z,53.10
2023-03-02T23:33:48.118Z,53.10
2023-03-02T23:36:21.058Z,53.10
2023-03-02T23:38:50.907Z,53.10
2023-03-02T23:41:19.444Z,53.80
2023-03-02T23:43:47.911Z,53.20
2023-03-02T23:46:16.500Z,53.20
2023-03-02T23:48:45.158Z,53.20
2023-03-02T23:51:13.617Z,53.30
2023-03-02T23:53:44.000Z,53.20
2023-03-02T23:56:12.649Z,53.30
2023-03-02T23:58:41.606Z,53.30
